Time;durP1;ratioP1;P1;durP2;ratioP2;P2;SDS_P1;SDS_P2;PMS_P1;PMS_P2;Temp;Humidity;BMP_temperature;BMP_pressure;BME280_temperature;BME280_humidity;BME280_pressure;Samples;Min_cycle;Max_cycle;Signal;HPM_P1;HPM_P2
2023/08/03 00:00:19;;;;;;;10.98;7.88;;;538.40;2406.40;;;;;;5115621;28;20023;-58
2023/08/03 00:02:48;;;;;;;10.98;7.63;;;538.40;2406.40;;;;;;5114810;28;20028;-58
2023/08/03 00:05:17;;;;;;;9.13;7.82;;;538.30;2406.40;;;;;;5115286;28;20096;-58
2023/08/03 00:07:44;;;;;;;10.55;8.27;;;538.40;2406.40;;;;;;5115301;28;20005;-58
2023/08/03 00:10:10;;;;;;;9.98;8.85;;;538.30;2406.40;;;;;;5115117;28;20017;-57
2023/08/03 00:12:36;;;;;;;9.38;8.35;;;538.30;2406.40;;;;;;5112504;28;20040;-59
2023/08/03 00:15:01;;;;;;;12.48;8.20;;;538.30;2406.40;;;;;;5115521;28;20016;-57
2023/08/03 00:17:27;;;;;;;12.15;7.97;;;538.30;2406.40;;;;;;5115717;28;20012;-60
2023/08/03 00:19:53;;;;;;;11.02;8.05;;;538.20;2406.40;;;;;;5115374;28;20016;-58
2023/08/03 00:22:19;;;;;;;11.43;8.35;;;538.10;2406.40;;;;;;5115027;28;20017;-59
2023/08/03 00:24:44;;;;;;;9.48;8.45;;;538.00;2406.40;;;;;;5115180;28;20070;-59
2023/08/03 00:27:10;;;;;;;11.63;8.88;;;538.00;2406.40;;;;;;5115182;28;20084;-57
2023/08/03 00:29:36;;;;;;;14.82;9.15;;;538.10;2406.40;;;;;;5115290;28;20080;-59
2023/08/03 00:32:01;;;;;;;13.18;9.50;;;538.00;2406.40;;;;;;5111022;28;20012;-58
2023/08/03 00:34:30;;;;;;;9.23;7.60;;;538.00;2406.40;;;;;;5115333;28;20024;-58
2023/08/03 00:36:56;;;;;;;11.75;8.32;;;537.90;2406.40;;;;;;5115456;28;20233;-59
2023/08/03 00:39:23;;;;;;;9.18;7.45;;;537.90;2406.40;;;;;;5114923;28;20016;-59
2023/08/03 00:41:49;;;;;;;8.75;6.88;;;537.80;2406.40;;;;;;5115252;28;20099;-58
2023/08/03 00:44:14;;;;;;;9.02;7.95;;;537.80;2406.40;;;;;;5114700;28;20039;-59
2023/08/03 00:46:40;;;;;;;10.90;7.70;;;537.80;2406.40;;;;;;5114877;28;20117;-58
2023/08/03 00:49:06;;;;;;;8.95;8.00;;;537.90;2406.40;;;;;;5115079;28;20048;-60
2023/08/03 00:51:31;;;;;;;12.15;8.23;;;537.90;2406.40;;;;;;5114907;28;20012;-58
2023/08/03 00:53:57;;;;;;;13.35;7.97;;;537.90;2406.40;;;;;;5111002;28;20023;-58
2023/08/03 00:56:23;;;;;;;9.77;8.77;;;537.80;2406.40;;;;;;5114996;28;20016;-59
2023/08/03 00:58:48;;;;;;;9.95;8.95;;;537.80;2406.40;;;;;;5115047;28;20008;-59
2023/08/03 01:01:14;;;;;;;12.05;8.13;;;537.80;2406.40;;;;;;5114865;28;20016;-59
2023/08/03 01:03:40;;;;;;;12.63;8.95;;;537.90;2406.40;;;;;;5114563;28;20047;-59
2023/08/03 01:06:05;;;;;;;12.07;9.70;;;538.00;2406.40;;;;;;5115149;28;20012;-59
2023/08/03 01:08:31;;;;;;;11.02;9.10;;;538.00;2406.40;;;;;;5114684;28;20016;-60
2023/08/03 01:10:57;;;;;;;11.93;8.88;;;538.10;2406.40;;;;;;5115224;28;20040;-61
2023/08/03 01:13:23;;;;;;;10.60;8.00;;;538.20;2406.40;;;;;;5116766;28;20019;-59
2023/08/03 01:15:49;;;;;;;11.95;9.20;;;538.40;2406.40;;;;;;5118945;28;20054;-60
2023/08/03 01:18:15;;;;;;;10.93;8.77;;;538.40;2406.40;;;;;;5118521;28;20032;-60
2023/08/03 01:20:43;;;;;;;20.73;9.80;;;538.30;2406.40;;;;;;5118454;28;20024;-60
2023/08/03 01:23:09;;;;;;;9.90;8.90;;;538.20;2406.40;;;;;;5116837;28;20020;-59
2023/08/03 01:25:35;;;;;;;12.05;9.43;;;538.20;2406.40;;;;;;5115940;28;20020;-59
2023/08/03 01:28:05;;;;;;;11.82;9.43;;;538.20;2406.40;;;;;;5118281;28;20042;-60
2023/08/03 01:30:31;;;;;;;10.60;9.30;;;538.10;2406.40;;;;;;5118256;28;20016;-59
2023/08/03 01:32:57;;;;;;;13.35;8.77;;;538.10;2406.40;;;;;;5118408;28;20039;-58
2023/08/03 01:35:23;;;;;;;12.05;9.00;;;538.10;2406.40;;;;;;5118162;28;20031;-59
2023/08/03 01:37:50;;;;;;;11.43;9.18;;;537.90;2406.40;;;;;;5118155;28;20013;-59
2023/08/03 01:40:17;;;;;;;12.18;9.27;;;538.00;2406.40;;;;;;5118061;28;20039;-59
2023/08/03 01:42:43;;;;;;;10.20;9.15;;;537.90;2406.40;;;;;;5117852;28;20054;-58
2023/08/03 01:45:09;;;;;;;13.50;9.88;;;537.80;2406.40;;;;;;5118135;28;20013;-59
2023/08/03 01:47:35;;;;;;;10.35;9.15;;;537.80;2406.40;;;;;;5118004;28;20020;-59
2023/08/03 01:50:01;;;;;;;10.68;9.57;;;537.70;2406.40;;;;;;5117814;28;20031;-59
2023/08/03 01:52:26;;;;;;;11.23;10.07;;;537.70;2406.40;;;;;;5117868;28;20036;-59
2023/08/03 01:54:52;;;;;;;16.02;10.48;;;537.70;2406.40;;;;;;5113614;28;20101;-59
2023/08/03 01:57:18;;;;;;;13.05;10.55;;;537.70;2406.40;;;;;;5117840;28;20023;-59
2023/08/03 01:59:46;;;;;;;21.67;10.48;;;537.80;2406.40;;;;;;5117649;28;20012;-60
2023/08/03 02:02:12;;;;;;;12.20;9.90;;;537.80;2406.40;;;;;;5117526;28;20023;-58
2023/08/03 02:04:39;;;;;;;10.93;9.80;;;537.80;2406.40;;;;;;5117409;28;20020;-60
2023/08/03 02:07:14;;;;;;;13.30;10.65;;;537.90;2406.40;;;;;;5117600;28;20028;-60
2023/08/03 02:09:40;;;;;;;11.63;10.00;;;537.80;2406.40;;;;;;5117563;28;20028;-59
2023/08/03 02:12:06;;;;;;;11.60;9.45;;;537.80;2406.40;;;;;;5117781;28;20012;-60
2023/08/03 02:14:32;;;;;;;11.55;10.10;;;537.80;2406.40;;;;;;5117283;28;20016;-59
2023/08/03 02:16:57;;;;;;;13.88;10.80;;;537.80;2406.40;;;;;;5117709;28;20018;-59
2023/08/03 02:19:23;;;;;;;12.68;10.05;;;537.80;2406.40;;;;;;5117293;28;20016;-59
2023/08/03 02:21:49;;;;;;;10.98;9.75;;;537.80;2406.40;;;;;;5117403;28;20020;-59
2023/08/03 02:24:14;;;;;;;11.77;10.45;;;537.80;2406.40;;;;;;5112511;28;20293;-59
2023/08/03 02:26:40;;;;;;;11.52;9.85;;;537.60;2406.40;;;;;;5117168;28;20019;-59
2023/08/03 02:29:05;;;;;;;11.43;8.95;;;537.60;2406.40;;;;;;5117246;28;20012;-60
2023/08/03 02:31:31;;;;;;;10.93;7.75;;;537.60;2406.40;;;;;;5117174;28;20064;-58
2023/08/03 02:33:57;;;;;;;15.32;9.30;;;512.90;2380.80;;;;;;5116929;28;20046;-61
2023/08/03 02:36:22;;;;;;;11.27;8.95;;;512.90;2380.80;;;;;;5116805;28;20035;-58
2023/08/03 02:38:48;;;;;;;13.40;8.50;;;512.90;2380.80;;;;;;5117011;28;20020;-59
2023/08/03 02:41:14;;;;;;;8.70;7.80;;;512.90;2380.80;;;;;;5116627;28;20032;-58
2023/08/03 02:43:39;;;;;;;9.95;8.95;;;512.90;2380.80;;;;;;5116752;28;20028;-59
2023/08/03 02:46:05;;;;;;;10.27;8.75;;;512.90;2380.80;;;;;;5116888;28;20040;-60
2023/08/03 02:48:31;;;;;;;12.63;9.52;;;512.90;2380.80;;;;;;5116669;28;20020;-58
2023/08/03 02:50:57;;;;;;;11.88;9.05;;;512.90;2380.80;;;;;;5116993;28;20042;-59
2023/08/03 02:53:23;;;;;;;11.43;9.38;;;512.90;2380.80;;;;;;5113875;28;20025;-58
2023/08/03 02:55:50;;;;;;;10.63;8.70;;;512.90;2380.80;;;;;;5116200;28;20019;-59
2023/08/03 02:58:16;;;;;;;9.85;8.60;;;512.90;2380.80;;;;;;5116464;28;20021;-59
2023/08/03 03:00:42;;;;;;;12.18;9.20;;;512.90;2380.80;;;;;;5116592;28;20018;-58
2023/08/03 03:03:07;;;;;;;18.05;10.02;;;512.90;2380.80;;;;;;5116332;28;20031;-58
2023/08/03 03:05:33;;;;;;;10.57;9.48;;;512.80;2380.80;;;;;;5116535;28;20027;-58
2023/08/03 03:07:59;;;;;;;12.13;7.88;;;512.70;2380.80;;;;;;5116620;28;20038;-58
2023/08/03 03:10:24;;;;;;;10.43;9.20;;;512.70;2380.80;;;;;;5116402;28;20028;-57
2023/08/03 03:12:50;;;;;;;9.18;8.27;;;512.70;2380.80;;;;;;5116379;28;20020;-58
2023/08/03 03:15:16;;;;;;;9.80;8.73;;;512.60;2380.80;;;;;;5116558;28;20025;-58
2023/08/03 03:17:42;;;;;;;13.85;8.75;;;512.60;2380.80;;;;;;5116298;28;20038;-58
2023/08/03 03:20:09;;;;;;;12.70;10.32;;;512.60;2380.80;;;;;;5116472;28;20008;-59
2023/08/03 03:22:38;;;;;;;11.93;10.70;;;512.70;2380.80;;;;;;5115187;28;20016;-59
2023/08/03 03:25:04;;;;;;;11.38;10.20;;;512.70;2380.80;;;;;;5111641;28;20081;-58
2023/08/03 03:27:30;;;;;;;10.50;8.88;;;512.80;2380.80;;;;;;5115668;28;20020;-57
2023/08/03 03:29:56;;;;;;;11.73;10.52;;;512.60;2380.80;;;;;;5115874;28;20022;-59
2023/08/03 03:32:22;;;;;;;15.75;9.15;;;512.60;2380.80;;;;;;5115638;28;20038;-58
2023/08/03 03:34:47;;;;;;;11.90;8.63;;;512.60;2380.80;;;;;;5115360;28;20107;-58
2023/08/03 03:37:13;;;;;;;10.57;8.77;;;512.50;2380.80;;;;;;5114090;28;20011;-57
2023/08/03 03:39:39;;;;;;;14.07;9.65;;;512.50;2380.80;;;;;;5115957;28;20091;-58
2023/08/03 03:42:05;;;;;;;10.88;9.23;;;512.50;2380.80;;;;;;5115519;28;20040;-60
2023/08/03 03:44:32;;;;;;;11.15;8.65;;;512.50;2380.80;;;;;;5115669;28;20024;-59
2023/08/03 03:46:58;;;;;;;12.52;9.30;;;512.60;2380.80;;;;;;5115913;28;20012;-58
2023/08/03 03:49:24;;;;;;;13.10;9.50;;;512.60;2380.80;;;;;;5115419;28;20023;-58
2023/08/03 03:51:49;;;;;;;11.18;9.55;;;512.60;2380.80;;;;;;5115989;28;20024;-60
2023/08/03 03:54:15;;;;;;;10.43;8.82;;;512.60;2380.80;;;;;;5111983;28;20016;-59
2023/08/03 03:56:41;;;;;;;11.40;9.95;;;512.80;2380.80;;;;;;5115649;28;20073;-58
2023/08/03 03:59:06;;;;;;;14.48;9.25;;;512.80;2380.80;;;;;;5115725;28;20035;-58
2023/08/03 04:01:32;;;;;;;8.55;7.65;;;512.90;2380.80;;;;;;5115395;28;20012;-59
2023/08/03 04:03:58;;;;;;;11.07;9.40;;;512.90;2380.80;;;;;;5115428;28;20052;-58
2023/08/03 04:06:23;;;;;;;11.20;9.65;;;512.90;2380.80;;;;;;5115432;28;20030;-57
2023/08/03 04:08:49;;;;;;;11.40;9.13;;;512.90;2380.80;;;;;;5115720;28;20023;-58
2023/08/03 04:11:15;;;;;;;13.60;9.32;;;512.90;2380.80;;;;;;5115341;28;20012;-59
2023/08/03 04:13:40;;;;;;;12.90;9.30;;;537.60;2406.40;;;;;;5115395;28;20024;-57
2023/08/03 04:16:06;;;;;;;13.73;9.32;;;537.60;2406.40;;;;;;5115703;28;20084;-59
2023/08/03 04:18:32;;;;;;;12.40;8.95;;;537.70;2406.40;;;;;;5111436;28;20023;-57
2023/08/03 04:20:58;;;;;;;9.90;8.90;;;537.80;2406.40;;;;;;5115543;28;20042;-58
2023/08/03 04:23:23;;;;;;;10.75;8.93;;;537.90;2406.40;;;;;;5115017;28;20056;-57
2023/08/03 04:25:49;;;;;;;12.43;9.48;;;537.90;2406.40;;;;;;5115519;28;20008;-58
2023/08/03 04:28:15;;;;;;;14.25;9.40;;;538.00;2406.40;;;;;;5115177;28;20071;-58
2023/08/03 04:30:40;;;;;;;12.77;9.35;;;538.10;2406.40;;;;;;5115071;28;20032;-58
2023/08/03 04:33:06;;;;;;;10.80;9.02;;;538.10;2406.40;;;;;;5115586;28;20038;-58
2023/08/03 04:35:31;;;;;;;10.93;8.77;;;538.10;2406.40;;;;;;5114997;28;20005;-57
2023/08/03 04:37:57;;;;;;;13.57;8.95;;;538.20;2406.40;;;;;;5112354;28;20024;-59
2023/08/03 04:40:23;;;;;;;11.50;9.40;;;538.20;2406.40;;;;;;5114467;28;20053;-57
2023/08/03 04:42:48;;;;;;;9.13;8.20;;;538.30;2406.40;;;;;;5115164;28;20020;-61
2023/08/03 04:45:14;;;;;;;16.80;9.43;;;538.40;2406.40;;;;;;5115160;28;20019;-60
2023/08/03 04:47:40;;;;;;;11.48;8.63;;;538.50;2406.40;;;;;;5115924;28;20088;-58
2023/08/03 04:50:06;;;;;;;14.63;9.40;;;538.50;2406.40;;;;;;5119238;28;20024;-58
2023/08/03 04:52:32;;;;;;;13.30;8.63;;;563.20;2432.00;;;;;;5118825;28;20088;-58
2023/08/03 04:54:57;;;;;;;11.48;8.50;;;563.40;2432.00;;;;;;5119267;28;20008;-64
2023/08/03 04:57:23;;;;;;;12.95;8.30;;;563.60;2432.00;;;;;;5119183;28;20016;-62
2023/08/03 04:59:49;;;;;;;12.85;8.65;;;563.60;2432.00;;;;;;5115283;28;20008;-61
2023/08/03 05:02:14;;;;;;;11.77;8.07;;;589.70;2432.00;;;;;;5118801;28;20224;-62
2023/08/03 05:04:40;;;;;;;11.90;8.27;;;717.50;2432.00;;;;;;5118641;28;20035;-62
2023/08/03 05:07:06;;;;;;;10.25;8.52;;;819.30;2150.40;;;;;;5118995;28;20043;-62
2023/08/03 05:09:31;;;;;;;10.07;7.80;;;871.10;1868.80;;;;;;5118793;28;20044;-62
2023/08/03 05:11:57;;;;;;;15.25;7.45;;;947.20;1715.20;;;;;;5119123;28;20036;-63
2023/08/03 05:14:23;;;;;;;9.07;8.18;;;948.10;1612.80;;;;;;5118989;28;20020;-62
2023/08/03 05:16:48;;;;;;;8.90;7.43;;;973.60;1561.60;;;;;;5118913;28;20004;-63
2023/08/03 05:19:14;;;;;;;10.15;7.93;;;999.30;1510.40;;;;;;5118782;28;20012;-62
2023/08/03 05:21:40;;;;;;;8.57;7.68;;;1024.70;1433.60;;;;;;5118651;28;20075;-64
2023/08/03 05:24:05;;;;;;;9.75;8.00;;;1024.60;1459.20;;;;;;5114282;28;20040;-63
2023/08/03 05:26:33;;;;;;;8.27;7.13;;;1050.10;1433.60;;;;;;5118637;28;20015;-63
2023/08/03 05:28:58;;;;;;;8.55;7.80;;;1050.30;1382.40;;;;;;5118711;28;20079;-64
2023/08/03 05:31:24;;;;;;;9.48;8.60;;;1050.40;1382.40;;;;;;5118626;28;20023;-63
2023/08/03 05:33:50;;;;;;;7.68;6.93;;;1075.80;1331.20;;;;;;5118456;28;20032;-62
2023/08/03 05:36:16;;;;;;;9.07;8.23;;;1101.00;1305.60;;;;;;5118700;28;20012;-64
2023/08/03 05:38:42;;;;;;;8.50;7.70;;;1100.90;1305.60;;;;;;5118267;28;20016;-64
2023/08/03 05:41:16;;;;;;;9.32;8.10;;;1101.60;1280.00;;;;;;5118526;28;20028;-63
2023/08/03 05:43:42;;;;;;;8.50;7.70;;;1101.00;1305.60;;;;;;5118290;28;20027;-63
2023/08/03 05:46:12;;;;;;;8.55;7.85;;;1127.00;1254.40;;;;;;5118491;28;20015;-64
2023/08/03 05:48:38;;;;;;;8.73;7.85;;;1177.60;1203.20;;;;;;5118539;28;20020;-63
2023/08/03 05:51:04;;;;;;;11.70;8.85;;;1177.70;1177.60;;;;;;5118083;28;20020;-63
2023/08/03 05:53:32;;;;;;;10.43;8.73;;;1177.60;1203.20;;;;;;5113689;28;20033;-64
2023/08/03 05:55:58;;;;;;;9.60;8.80;;;1178.30;1177.60;;;;;;5118444;28;20022;-64
2023/08/03 05:58:24;;;;;;;10.15;9.23;;;1203.80;1152.00;;;;;;5118244;28;20040;-64
2023/08/03 06:00:50;;;;;;;9.30;8.50;;;1203.70;1152.00;;;;;;5116972;28;20012;-64
2023/08/03 06:03:17;;;;;;;10.18;9.23;;;1178.10;1152.00;;;;;;5118016;28;20027;-64
2023/08/03 06:05:47;;;;;;;10.25;9.45;;;1178.30;1152.00;;;;;;5118008;28;20080;-64
2023/08/03 06:08:16;;;;;;;10.20;9.25;;;1178.50;1126.40;;;;;;5117904;28;20016;-64
2023/08/03 06:10:52;;;;;;;10.70;9.85;;;1178.30;1126.40;;;;;;5117803;28;20033;-63
2023/08/03 06:13:20;;;;;;;11.90;10.63;;;1203.30;1126.40;;;;;;5118055;28;20020;-64
2023/08/03 06:15:47;;;;;;;11.15;9.55;;;1203.60;1126.40;;;;;;5117967;28;20012;-64
2023/08/03 06:18:21;;;;;;;11.23;10.48;;;1228.90;1126.40;;;;;;5117709;28;20015;-63
2023/08/03 06:20:48;;;;;;;11.43;10.55;;;1254.80;1075.20;;;;;;5117522;28;20088;-64
2023/08/03 06:23:19;;;;;;;11.05;10.30;;;1229.20;1075.20;;;;;;5115651;28;20024;-64
2023/08/03 06:25:47;;;;;;;11.52;10.52;;;1254.80;1075.20;;;;;;5116430;28;20105;-64
2023/08/03 06:28:16;;;;;;;13.32;12.32;;;1255.00;1075.20;;;;;;5117334;28;20020;-64
2023/08/03 06:30:42;;;;;;;13.60;12.50;;;1255.00;1075.20;;;;;;5117413;28;20032;-63
2023/08/03 06:33:11;;;;;;;15.90;14.48;;;1280.50;1049.60;;;;;;5117602;28;20020;-64
2023/08/03 06:35:42;;;;;;;15.68;13.93;;;1280.50;1049.60;;;;;;5117421;28;20016;-64
2023/08/03 06:38:10;;;;;;;15.88;14.38;;;1280.50;1049.60;;;;;;5117481;28;20014;-63
2023/08/03 06:40:39;;;;;;;15.45;13.70;;;1306.00;998.40;;;;;;5117309;28;20122;-64
2023/08/03 06:43:05;;;;;;;16.13;14.50;;;1306.20;998.40;;;;;;5117296;28;20031;-63
2023/08/03 06:45:32;;;;;;;20.05;13.70;;;1306.00;998.40;;;;;;5117104;28;20012;-64
2023/08/03 06:48:00;;;;;;;15.38;13.88;;;1306.20;998.40;;;;;;5117249;28;20019;-64
2023/08/03 06:50:28;;;;;;;16.20;14.70;;;1280.90;1024.00;;;;;;5117278;28;20039;-65
2023/08/03 06:52:54;;;;;;;15.02;13.65;;;1280.00;1049.60;;;;;;5117133;28;20058;-65
2023/08/03 06:55:20;;;;;;;16.45;14.88;;;1280.40;1049.60;;;;;;5112855;28;20028;-64
2023/08/03 06:57:46;;;;;;;17.73;15.70;;;1305.70;998.40;;;;;;5117133;28;20088;-65
2023/08/03 07:00:12;;;;;;;16.35;14.85;;;1280.20;1049.60;;;;;;5116879;28;20020;-65
2023/08/03 07:02:38;;;;;;;16.45;14.75;;;1306.20;998.40;;;;;;5116911;28;20016;-65
2023/08/03 07:05:04;;;;;;;15.40;14.23;;;1280.40;1049.60;;;;;;5116884;28;20035;-64
2023/08/03 07:07:31;;;;;;;21.13;14.88;;;1280.40;1049.60;;;;;;5116607;28;20024;-64
2023/08/03 07:09:57;;;;;;;16.95;15.30;;;1331.40;998.40;;;;;;5117027;28;20035;-65
2023/08/03 07:12:22;;;;;;;18.23;16.05;;;1331.90;998.40;;;;;;5116444;28;20012;-65
2023/08/03 07:14:48;;;;;;;17.65;16.10;;;1306.30;998.40;;;;;;5116781;28;20032;-65
2023/08/03 07:17:14;;;;;;;16.73;15.25;;;1280.90;1024.00;;;;;;5116590;28;20017;-64
2023/08/03 07:19:40;;;;;;;18.63;17.02;;;1306.30;1024.00;;;;;;5116566;28;20168;-64
2023/08/03 07:22:07;;;;;;;17.75;16.25;;;1305.70;1024.00;;;;;;5116536;28;20020;-64
2023/08/03 07:24:34;;;;;;;18.98;17.20;;;1306.30;998.40;;;;;;5111918;28;20035;-63
2023/08/03 07:27:02;;;;;;;19.00;17.25;;;1357.10;1024.00;;;;;;5116713;28;20036;-65
2023/08/03 07:29:29;;;;;;;17.58;15.88;;;1331.20;1024.00;;;;;;5116554;28;20016;-65
2023/08/03 07:31:56;;;;;;;19.52;17.58;;;1305.90;1024.00;;;;;;5116447;28;20028;-65
2023/08/03 07:34:22;;;;;;;18.02;16.42;;;1280.00;1075.20;;;;;;5116308;28;20032;-64
2023/08/03 07:36:52;;;;;;;16.70;15.13;;;1254.40;1100.80;;;;;;5116228;28;20016;-63
2023/08/03 07:39:18;;;;;;;17.23;15.57;;;1255.30;1075.20;;;;;;5116441;28;20305;-64
2023/08/03 07:41:43;;;;;;;18.25;16.60;;;1280.70;1049.60;;;;;;5115958;28;20047;-63
2023/08/03 07:44:09;;;;;;;21.60;15.57;;;1280.00;1075.20;;;;;;5116156;28;20054;-64
2023/08/03 07:46:35;;;;;;;18.52;16.75;;;1280.40;1075.20;;;;;;5116029;28;20044;-64
2023/08/03 07:49:01;;;;;;;17.63;16.33;;;1305.90;1024.00;;;;;;5115848;28;20055;-63
2023/08/03 07:51:26;;;;;;;20.17;18.65;;;1280.70;1049.60;;;;;;5116213;28;20024;-64
2023/08/03 07:53:52;;;;;;;21.45;17.55;;;1280.70;1049.60;;;;;;5112412;28;20016;-63
2023/08/03 07:56:19;;;;;;;19.15;17.52;;;1306.50;1024.00;;;;;;5116023;28;20027;-63
2023/08/03 07:58:46;;;;;;;19.08;17.58;;;1305.60;1049.60;;;;;;5115997;28;20023;-63
2023/08/03 08:01:12;;;;;;;22.35;20.45;;;1306.30;1024.00;;;;;;5115685;28;20076;-63
2023/08/03 08:03:39;;;;;;;20.65;19.10;;;1357.10;998.40;;;;;;5115827;28;20047;-63
2023/08/03 08:06:15;;;;;;;21.75;19.83;;;1382.80;998.40;;;;;;5115793;28;20008;-63
2023/08/03 08:08:41;;;;;;;26.83;24.58;;;1356.90;998.40;;;;;;5115614;28;20043;-63
2023/08/03 08:11:07;;;;;;;23.15;21.20;;;1332.10;972.80;;;;;;5115428;28;20020;-64
2023/08/03 08:13:33;;;;;;;21.10;19.15;;;1331.90;998.40;;;;;;5115369;28;20012;-63
2023/08/03 08:16:00;;;;;;;20.65;18.75;;;1305.90;1024.00;;;;;;5115657;28;20211;-65
2023/08/03 08:18:26;;;;;;;20.30;18.15;;;1306.50;972.80;;;;;;5115769;28;20112;-63
2023/08/03 08:20:59;;;;;;;19.15;17.88;;;1357.20;972.80;;;;;;5115362;28;20019;-65
2023/08/03 08:23:24;;;;;;;19.25;17.73;;;1305.70;998.40;;;;;;5115010;28;20036;-65
2023/08/03 08:25:50;;;;;;;20.40;18.50;;;1280.40;1024.00;;;;;;5118889;28;20017;-63
2023/08/03 08:28:17;;;;;;;18.52;16.90;;;1280.00;1024.00;;;;;;5119945;28;20016;-64
2023/08/03 08:30:44;;;;;;;19.00;17.30;;;1255.00;1049.60;;;;;;5119653;28;20004;-64
2023/08/03 08:33:10;;;;;;;17.60;15.95;;;1203.20;1075.20;;;;;;5119923;28;20016;-62
2023/08/03 08:35:35;;;;;;;15.05;13.38;;;1126.90;1152.00;;;;;;5119815;28;20055;-64
2023/08/03 08:38:04;;;;;;;16.25;13.05;;;1075.70;1203.20;;;;;;5119584;28;20016;-61
2023/08/03 08:40:30;;;;;;;12.25;11.07;;;1075.20;1280.00;;;;;;5119591;28;20047;-61
2023/08/03 08:42:56;;;;;;;12.07;10.30;;;1049.70;1280.00;;;;;;5119539;28;20032;-62
2023/08/03 08:45:22;;;;;;;14.68;10.77;;;1024.40;1280.00;;;;;;5119339;28;20008;-61
2023/08/03 08:47:48;;;;;;;10.10;8.98;;;999.10;1356.80;;;;;;5119516;28;20076;-62
2023/08/03 08:50:14;;;;;;;11.98;8.20;;;973.60;1305.60;;;;;;5119154;28;20032;-61
2023/08/03 08:52:44;;;;;;;8.63;7.75;;;973.20;1356.80;;;;;;5119534;28;20023;-62
2023/08/03 08:55:30;;;;;;;9.23;7.93;;;973.00;1331.20;;;;;;5114897;28;20012;-62
2023/08/03 08:57:58;;;;;;;9.90;8.13;;;973.10;1331.20;;;;;;5119568;28;20016;-62
2023/08/03 09:00:25;;;;;;;13.07;9.18;;;973.00;1331.20;;;;;;5119289;28;20019;-61
2023/08/03 09:03:03;;;;;;;9.85;7.25;;;972.90;1331.20;;;;;;5119053;28;20050;-61
2023/08/03 09:05:29;;;;;;;10.00;8.00;;;947.80;1331.20;;;;;;5119326;28;20020;-61
2023/08/03 09:08:16;;;;;;;9.13;7.38;;;948.10;1356.80;;;;;;5119159;28;20034;-62
2023/08/03 09:10:52;;;;;;;7.93;7.13;;;948.10;1356.80;;;;;;5118911;28;20027;-61
2023/08/03 09:13:31;;;;;;;8.80;7.72;;;947.30;1356.80;;;;;;5119192;28;20016;-60
2023/08/03 09:15:57;;;;;;;9.80;7.32;;;947.40;1382.40;;;;;;5119267;28;20016;-62
2023/08/03 09:18:27;;;;;;;8.13;6.60;;;947.20;1382.40;;;;;;5118992;28;20075;-63
2023/08/03 09:21:13;;;;;;;10.80;7.00;;;922.50;1408.00;;;;;;5118830;28;20020;-63
2023/08/03 09:23:40;;;;;;;8.18;7.20;;;922.10;1382.40;;;;;;5115010;28;20028;-63
2023/08/03 09:26:06;;;;;;;9.48;7.22;;;922.00;1408.00;;;;;;5118991;28;20035;-63
2023/08/03 09:28:41;;;;;;;8.20;6.78;;;922.00;1382.40;;;;;;5118722;28;20016;-62
2023/08/03 09:31:08;;;;;;;8.82;6.32;;;921.60;1433.60;;;;;;5118868;28;20032;-63
2023/08/03 09:33:35;;;;;;;10.43;6.78;;;;;;;;;;5118588;28;20011;-63
2023/08/03 09:36:13;;;;;;;9.88;6.47;;;921.70;1433.60;;;;;;5118412;28;20036;-62
2023/08/03 09:38:40;;;;;;;7.57;6.63;;;896.90;1382.40;;;;;;5118726;28;20021;-63
2023/08/03 09:41:08;;;;;;;8.77;6.13;;;896.70;1382.40;;;;;;5118518;28;20055;-63
2023/08/03 09:43:34;;;;;;;7.95;5.97;;;896.80;1382.40;;;;;;5118218;28;20027;-62
2023/08/03 09:46:01;;;;;;;6.60;5.90;;;896.80;1408.00;;;;;;5118503;28;20016;-62
2023/08/03 09:48:26;;;;;;;10.48;7.10;;;921.70;1408.00;;;;;;5118624;28;20015;-63
2023/08/03 09:50:54;;;;;;;11.35;6.90;;;921.60;1408.00;;;;;;5118059;28;20043;-62
2023/08/03 09:53:25;;;;;;;8.98;6.50;;;896.80;1382.40;;;;;;5115350;28;20063;-62
2023/08/03 09:55:58;;;;;;;8.82;6.10;;;896.90;1382.40;;;;;;5117815;28;20012;-62
2023/08/03 09:58:47;;;;;;;8.13;7.22;;;896.40;1408.00;;;;;;5118154;28;20062;-62
2023/08/03 10:01:16;;;;;;;11.90;6.43;;;896.50;1408.00;;;;;;5117571;28;20055;-62
2023/08/03 10:03:46;;;;;;;7.22;6.00;;;896.30;1408.00;;;;;;5117964;28;20032;-62
2023/08/03 10:06:16;;;;;;;8.73;5.32;;;896.50;1408.00;;;;;;5117941;28;20004;-62
2023/08/03 10:09:04;;;;;;;7.55;6.75;;;896.40;1433.60;;;;;;5117844;28;20075;-62
2023/08/03 10:11:48;;;;;;;9.00;6.03;;;896.70;1459.20;;;;;;5117903;28;20031;-62
2023/08/03 10:14:17;;;;;;;7.28;5.68;;;896.70;1433.60;;;;;;5117812;28;20015;-63
2023/08/03 10:16:44;;;;;;;7.65;5.53;;;;;;;;;;5117730;28;20052;-62
2023/08/03 10:19:11;;;;;;;6.35;5.70;;;;;;;;;;5118079;28;20016;-63
2023/08/03 10:21:37;;;;;;;8.75;6.40;;;896.10;1433.60;;;;;;5117656;28;20051;-63
2023/08/03 10:24:18;;;;;;;8.88;5.05;;;896.10;1433.60;;;;;;5113142;28;20023;-62
2023/08/03 10:26:49;;;;;;;5.88;5.20;;;896.00;1433.60;;;;;;5117600;28;20008;-62
2023/08/03 10:29:15;;;;;;;8.38;5.43;;;871.30;1433.60;;;;;;5117507;28;20020;-61
2023/08/03 10:31:58;;;;;;;5.72;5.07;;;896.10;1459.20;;;;;;5117428;28;20046;-63
2023/08/03 10:34:26;;;;;;;7.25;5.97;;;896.10;1433.60;;;;;;5117601;28;20016;-60
2023/08/03 10:36:53;;;;;;;14.15;5.75;;;896.10;1408.00;;;;;;5117330;28;20033;-61
2023/08/03 10:39:53;;;;;;;8.35;5.38;;;871.30;1382.40;;;;;;5117439;28;20103;-64
2023/08/03 10:42:21;;;;;;;10.07;5.72;;;871.30;1408.00;;;;;;5117255;28;20063;-61
2023/08/03 10:44:48;;;;;;;6.55;5.85;;;896.00;1433.60;;;;;;5117253;28;20042;-61
2023/08/03 10:47:24;;;;;;;5.72;4.95;;;871.20;1433.60;;;;;;5116700;28;20073;-61
2023/08/03 10:49:52;;;;;;;7.53;5.40;;;896.00;1408.00;;;;;;5117338;28;20095;-61
2023/08/03 10:52:19;;;;;;;6.88;5.03;;;871.20;1433.60;;;;;;5117152;28;20016;-62
2023/08/03 10:54:45;;;;;;;6.63;5.45;;;871.10;1433.60;;;;;;5112868;28;20047;-62
2023/08/03 10:57:12;;;;;;;8.45;6.20;;;871.20;1408.00;;;;;;5116839;28;20062;-60
2023/08/03 10:59:43;;;;;;;5.72;5.13;;;896.00;1510.40;;;;;;5116998;28;20028;-61
2023/08/03 11:02:29;;;;;;;7.35;5.85;;;871.00;1433.60;;;;;;5116996;28;20064;-61
2023/08/03 11:05:04;;;;;;;6.95;5.63;;;871.30;1408.00;;;;;;5117032;28;20024;-62
2023/08/03 11:07:36;;;;;;;7.55;4.93;;;871.00;1408.00;;;;;;5116879;28;20016;-61
2023/08/03 11:10:04;;;;;;;7.47;5.63;;;870.90;1408.00;;;;;;5116657;28;20015;-61
2023/08/03 11:12:31;;;;;;;7.53;4.90;;;871.00;1408.00;;;;;;5116766;28;20088;-63
2023/08/03 11:14:59;;;;;;;6.20;5.03;;;870.90;1382.40;;;;;;5116933;28;20012;-61
2023/08/03 11:17:29;;;;;;;5.65;4.90;;;871.00;1408.00;;;;;;5116559;28;20031;-61
2023/08/03 11:19:56;;;;;;;7.10;5.97;;;871.10;1408.00;;;;;;5116848;28;20035;-61
2023/08/03 11:22:24;;;;;;;7.20;5.03;;;871.20;1484.80;;;;;;5116289;28;20040;-62
2023/08/03 11:24:51;;;;;;;8.00;5.35;;;871.10;1408.00;;;;;;5112973;28;20023;-61
2023/08/03 11:27:18;;;;;;;6.35;4.93;;;871.20;1408.00;;;;;;5116295;28;20027;-63
2023/08/03 11:29:45;;;;;;;6.20;5.60;;;871.30;1484.80;;;;;;5116269;28;20009;-62
2023/08/03 11:32:11;;;;;;;7.90;5.47;;;871.30;1382.40;;;;;;5116338;28;20032;-62
2023/08/03 11:34:40;;;;;;;6.35;5.70;;;871.20;1408.00;;;;;;5116491;28;20040;-61
2023/08/03 11:37:10;;;;;;;8.50;5.32;;;871.20;1408.00;;;;;;5116417;28;20079;-62
2023/08/03 11:39:36;;;;;;;10.25;6.03;;;871.10;1382.40;;;;;;5116352;28;20034;-63
2023/08/03 11:42:03;;;;;;;6.15;5.07;;;871.10;1433.60;;;;;;5115812;28;20064;-61
2023/08/03 11:44:28;;;;;;;5.93;4.88;;;871.10;1459.20;;;;;;5116062;28;20040;-62
2023/08/03 11:47:02;;;;;;;8.55;6.10;;;871.30;1459.20;;;;;;5116129;28;20113;-61
2023/08/03 11:49:29;;;;;;;6.13;5.00;;;896.00;1484.80;;;;;;5116375;28;20024;-62
2023/08/03 11:51:59;;;;;;;7.00;5.35;;;896.00;1433.60;;;;;;5115962;28;20020;-61
2023/08/03 11:54:28;;;;;;;6.50;5.68;;;871.30;1408.00;;;;;;5111961;28;20031;-62
2023/08/03 11:56:54;;;;;;;9.23;5.55;;;871.30;1382.40;;;;;;5115460;28;20012;-63
2023/08/03 11:59:20;;;;;;;7.28;5.53;;;896.00;1408.00;;;;;;5115779;28;20040;-62
2023/08/03 12:01:49;;;;;;;11.57;5.45;;;896.00;1408.00;;;;;;5116029;28;20083;-61
2023/08/03 12:04:17;;;;;;;7.25;5.40;;;871.20;1408.00;;;;;;5115757;28;20088;-63
2023/08/03 12:06:54;;;;;;;6.93;5.47;;;871.30;1433.60;;;;;;5115799;28;20016;-62
2023/08/03 12:09:27;;;;;;;6.25;5.20;;;871.30;1433.60;;;;;;5115777;28;20176;-62